Latest Coastal Weather Observations for Carnarvon

IDW60701

Issued at 2:53 am WST Sunday 25 June 2017 (issued every 10 minutes, with the page automatically refreshed every 10 minutes)

About coastal observations | Map of coastal stations | Coastal observations for WA | Marine services | Other Formats
Station Details ID: 006011 Name: CARNARVON AIRPORT Lat: -24.89 Lon: 113.67 Height: 4.0 m
Data from the previous 72 hours. | See also: Recent months at Carnarvon
Date/Time
WST
Temp
°C
Wind Pressure Rain since
9am
mm
Weather Cloud Vis
km
Sea
Height
m
Swell
Dir  Spd
kts
Gust
kts
hPa Trend Height
m
Period
s
Dir
25/02:30am 14.5 SE 9 11 1016.9 - 0.0 - - 10 - - - -
25/02:00am 14.8 SSE 11 13 1016.8 - 0.0 - - 10 - - - -
25/01:30am 14.7 SSE 9 10 1017.0 - 0.0 - - 10 - - - -
25/01:00am 15.1 SSE 9 11 1016.8 - 0.0 - - 10 - - - -
25/12:30am 15.5 SSE 9 11 1016.9 - 0.0 - - 10 - - - -
25/12:00am 15.6 SE 8 10 1016.6 - 0.0 - - 10 - - - -
 
Date/Time
WST
Temp
°C
Wind Pressure Rain since
9am
mm
Weather Cloud Vis
km
Sea
Height
m
Swell
Dir  Spd
kts
Gust
kts
hPa Trend Height
m
Period
s
Dir
24/11:30pm 16.4 SE 9 10 1016.5 - 0.0 - - 10 - - - -
24/11:00pm 17.2 SSE 7 9 1016.5 - 0.0 - - 10 - - - -
24/10:30pm 17.9 SSE 8 10 1016.5 - 0.0 - - 10 - - - -
24/10:00pm 18.5 S 9 11 1016.2 - 0.0 - - 10 - - - -
24/09:30pm 19.1 S 9 12 1015.9 - 0.0 - - 10 - - - -
24/09:00pm 19.0 S 8 9 1015.7 - 0.0 - - 10 - - - -
24/08:30pm 18.9 SSW 9 11 1015.5 - 0.0 - - 10 - - - -
24/08:00pm 19.1 S 11 13 1015.2 - 0.0 - - 10 - - - -
24/07:30pm 19.3 SSW 9 12 1015.0 - 0.0 - - 10 - - - -
24/07:00pm 19.1 SSW 9 11 1014.8 - 0.0 - - 10 - - - -
24/06:30pm 19.0 SSW 9 11 1014.4 - 0.0 - - 10 - - - -
24/06:00pm 19.1 SSW 9 11 1014.3 - 0.0 - - 10 - - - -
24/05:30pm 19.9 SSW 9 11 1014.1 - 0.0 - - 10 - - - -
24/05:00pm 20.8 SSW 9 12 1013.8 - 0.0 - - 10 - - - -
24/04:30pm 21.6 SSW 9 12 1013.7 - 0.0 - - 10 - - - -
24/04:00pm 21.5 SSW 11 15 1013.7 - 0.0 - - 10 - - - -
24/03:30pm 21.8 S 12 15 1013.6 - 0.0 - - 10 - - - -
24/03:00pm 22.1 S 14 17 1013.6 - 0.0 - - 10 - - - -
24/02:30pm 22.2 SSW 14 16 1013.7 - 0.0 - - 10 - - - -
24/02:00pm 22.3 SSW 11 14 1013.8 - 0.0 - - 10 - - - -
24/01:30pm 22.5 SSW 11 14 1014.2 - 0.0 - - 10 - - - -
24/01:00pm 22.9 SSW 12 15 1014.7 - 0.0 - - 10 - - - -
24/12:30pm 24.1 SSE 7 12 1014.9 - 0.0 - - 10 - - - -
24/12:00pm 23.9 ESE 7 12 1015.4 - 0.0 - - 10 - - - -
24/11:30am 23.6 ESE 6 9 1015.9 - 0.0 - - 10 - - - -
24/11:00am 23.2 E 8 12 1016.2 - 0.0 - - 10 - - - -
24/10:30am 22.5 E 9 12 1016.4 - 0.0 - - 10 - - - -
24/10:00am 21.3 E 9 11 1016.7 - 0.0 - - 10 - - - -
24/09:30am 20.1 E 8 10 1016.6 - 0.0 - - 10 - - - -
24/09:00am 17.9 E 9 12 1016.5 - - - - 10 - - - -
24/08:30am 15.7 E 7 11 1016.3 - - - - 10 - - - -
24/08:00am 13.9 E 6 8 1016.3 - - - - 10 - - - -
24/07:30am 12.4 E 7 8 1016.0 - - - - 10 - - - -
24/07:00am 12.4 ENE 7 9 1015.8 - - - - 10 - - - -
24/06:30am 12.9 ENE 8 10 1015.5 - - - - 10 - - - -
24/06:00am 11.5 E 7 9 1015.3 - - - - 10 - - - -
24/05:30am 11.0 E 6 6 1015.3 - - - - 10 - - - -
24/05:00am 11.5 ENE 7 8 1015.0 - - - - 10 - - - -
24/04:30am 11.9 ENE 8 9 1015.2 - - - - 10 - - - -
24/04:00am 11.7 ENE 7 7 1015.5 - - - - 10 - - - -
24/03:30am 12.3 ENE 8 10 1015.6 - - - - 10 - - - -
24/03:00am 12.4 ENE 9 11 1015.8 - - - - 10 - - - -
24/02:30am 11.1 NE 5 6 1015.9 - - - - 10 - - - -
24/02:00am 11.2 NE 7 8 1016.0 - - - - 10 - - - -
24/01:30am 11.4 NE 4 5 1016.1 - - - - 10 - - - -
24/01:00am 11.1 NE 7 7 1016.2 - - - - 10 - - - -
24/12:30am 11.6 ENE 7 8 1016.4 - - - - 10 - - - -
24/12:00am 11.7 NE 5 5 1016.4 - - - - 10 - - - -
 
Date/Time
WST
Temp
°C
Wind Pressure Rain since
9am
mm
Weather Cloud Vis
km
Sea
Height
m
Swell
Dir  Spd
kts
Gust
kts
hPa Trend Height
m
Period
s
Dir
23/11:30pm 12.5 NE 5 6 1016.6 - - - - 10 - - - -
23/11:00pm 12.6 NE 5 6 1016.7 - - - - 10 - - - -
23/10:30pm 12.4 NE 5 5 1016.5 - - - - 10 - - - -
23/10:00pm 12.9 NE 6 7 1016.5 - - - - 10 - - - -
23/09:30pm 12.7 NE 6 6 1016.6 - - - - 10 - - - -
23/09:00pm 13.7 ENE 5 6 1016.4 - - - - 10 - - - -
23/08:30pm 14.3 CALM 0 0 1016.5 - - - - 10 - - - -
23/08:00pm 14.7 CALM 0 0 1016.3 - - - - 10 - - - -
23/07:30pm 15.1 CALM 0 0 1016.2 - - - - 10 - - - -
23/07:00pm 16.7 CALM 0 0 1016.2 - - - - 10 - - - -
23/06:30pm 17.7 CALM 0 0 1016.1 - - - - 10 - - - -
23/06:00pm 19.1 CALM 0 0 1015.8 - - - - 10 - - - -
23/05:30pm 20.3 WSW 3 4 1015.6 - - - - 10 - - - -
23/05:00pm 20.9 SW 5 7 1015.3 - - - - 10 - - - -
23/04:30pm 21.5 WSW 7 9 1015.5 - - - - 10 - - - -
23/04:00pm 21.9 WSW 7 9 1015.4 - - - - 10 - - - -
23/03:30pm 22.0 WSW 8 11 1015.7 - - - - 10 - - - -
23/03:00pm 22.0 WSW 9 11 1015.6 - - Fine Partly cloudy 29 - - - -
23/02:30pm 22.0 WSW 7 11 1016.1 - - - - 10 - - - -
23/02:00pm 21.7 WSW 6 9 1016.2 - - - - 10 - - - -
23/01:30pm 21.4 WSW 7 10 1016.5 - - - - 10 - - - -
23/01:00pm 21.1 WSW 6 9 1016.9 - - - - 10 - - - -
23/12:30pm 20.4 WSW 7 10 1017.3 - - - - 10 - - - -
23/12:00pm - - - - - - - - - - - - - -
23/11:30am 21.3 WNW 8 12 1018.4 - 0.2 - - - - - - -
23/11:00am 21.4 WNW 4 8 1018.8 - 0.0 - Partly cloudy 10 - - - -
23/10:30am 20.7 NNW 5 9 1019.2 - 0.0 - Partly cloudy 10 - - - -
23/10:00am 20.3 N 6 7 1019.1 - 0.0 - Partly cloudy 10 - - - -
23/09:30am 18.5 NNE 7 9 1019.3 - 0.0 - Partly cloudy 10 - - - -
23/09:00am 16.7 NNE 7 9 1019.5 - 0.0 Fine Partly cloudy 12 - - - -
23/08:30am 14.8 N 7 9 1019.4 - 0.0 - Partly cloudy 10 - - - -
23/08:00am 12.4 N 5 6 1019.2 - 0.0 - - 10 - - - -
23/07:30am 10.1 N 7 8 1018.8 - 0.0 - - 10 - - - -
23/07:00am 9.8 N 6 7 1018.7 - 0.0 - - 10 - - - -
23/06:30am 10.3 NNE 6 7 1017.9 - 0.0 - - 10 - - - -
23/06:00am 9.6 ENE 7 8 1017.9 - 0.0 - - 10 - - - -
23/05:30am 10.1 E 5 6 1018.0 - 0.0 - - 10 - - - -
23/05:00am 10.9 E 4 5 1018.2 - 0.0 - - 10 - - - -
23/04:30am 12.1 E 3 4 1018.7 - 0.0 - - 10 - - - -
23/04:00am 11.9 E 4 5 1018.8 - 0.0 - - 10 - - - -
23/03:30am 12.4 ESE 3 4 1018.9 - 0.0 - - 10 - - - -
23/03:00am 12.9 SE 5 5 1018.7 - 0.0 - Partly cloudy 10 - - - -
23/02:30am 13.6 SE 4 5 1019.0 - 0.0 - Cloudy 10 - - - -
23/02:00am 12.7 SE 6 7 1018.9 - 0.0 - Partly cloudy 10 - - - -
23/01:30am 13.4 ESE 3 4 1019.3 - 0.0 - - 10 - - - -
23/01:00am 14.1 ESE 4 5 1019.6 - 0.0 - Partly cloudy 10 - - - -
23/12:30am 14.6 ESE 5 5 1020.1 - 0.0 - Partly cloudy 10 - - - -
23/12:00am 15.3 SE 8 10 1019.9 - 0.0 - Cloudy 10 - - - -
 
Date/Time
WST
Temp
°C
Wind Pressure Rain since
9am
mm
Weather Cloud Vis
km
Sea
Height
m
Swell
Dir  Spd
kts
Gust
kts
hPa Trend Height
m
Period
s
Dir
22/11:30pm 16.3 SSE 9 11 1020.0 - 0.0 - Partly cloudy 10 - - - -
22/11:00pm 11.8 SE 7 8 1020.2 - 0.0 - - 10 - - - -
22/10:30pm 13.0 SSE 5 7 1020.4 - 0.0 - - 10 - - - -
22/10:00pm 12.4 SSE 6 7 1020.5 - 0.0 - - 10 - - - -
22/09:30pm 14.3 SSE 7 7 1020.5 - 0.0 - - 10 - - - -
22/09:00pm 15.9 S 6 8 1020.4 - 0.0 - - 10 - - - -
22/08:30pm 16.8 S 8 10 1020.2 - 0.0 - - 10 - - - -
22/08:00pm 17.2 S 9 11 1019.9 - 0.0 - - 10 - - - -
22/07:30pm 15.3 S 8 9 1019.9 - 0.0 - - 10 - - - -
22/07:00pm 15.7 SSE 5 6 1019.7 - 0.0 - - 10 - - - -
22/06:30pm 16.5 S 7 8 1019.5 - 0.0 - - 10 - - - -
22/06:00pm 17.8 S 7 10 1019.3 - 0.0 - - 10 - - - -
22/05:30pm 18.6 SSE 10 12 1019.0 - 0.0 - - 10 - - - -
22/05:00pm 19.3 S 12 17 1018.8 - 0.0 - - 10 - - - -
22/04:30pm 20.3 S 13 17 1018.8 - 0.0 - - 10 - - - -
22/04:00pm 20.7 S 14 17 1018.7 - 0.0 - - 10 - - - -
22/03:30pm 21.1 S 12 15 1018.8 - 0.0 - - 10 - - - -
22/03:00pm 20.6 S 13 16 1018.8 - 0.0 Fine Partly cloudy 26 - - - -
22/02:30pm 19.8 SSW 14 17 1019.0 - 0.0 - Partly cloudy 10 - - - -
22/02:00pm 20.6 S 13 17 1019.0 - 0.0 - - 10 - - - -
22/01:30pm 21.0 S 13 15 1019.2 - 0.0 - - 10 - - - -
22/01:00pm 21.0 S 14 17 1019.3 - 0.0 - - 10 - - - -
22/12:30pm 20.9 S 13 16 1019.7 - 0.0 - - 10 - - - -
22/12:00pm 21.0 S 13 16 1020.0 - 0.0 - - 10 - - - -
22/11:30am 20.4 S 13 16 1020.4 - 0.0 - - 10 - - - -
22/11:00am 20.8 S 12 15 1020.7 - 0.0 - - 10 - - - -
22/10:30am 20.2 S 12 15 1021.0 - 0.0 - - 10 - - - -
22/10:00am 20.0 S 10 12 1021.1 - 0.0 - - 10 - - - -
22/09:30am 20.0 SE 9 11 1021.3 - 0.0 - - 10 - - - -
22/09:00am 18.1 SE 5 7 1021.3 - 0.0 Fine Mostly clear 12 - - - -
22/08:30am 16.5 SE 4 5 1021.3 - 0.0 - - 10 - - - -
22/08:00am 14.1 E 5 6 1021.0 - 0.0 - - 10 - - - -
22/07:30am 11.7 ESE 6 7 1020.8 - 0.0 - - 10 - - - -
22/07:00am 12.7 SE 7 8 1020.3 - 0.0 - - 10 - - - -
22/06:30am 12.4 SSE 8 8 1020.0 - 0.0 - - 10 - - - -
22/06:00am 13.6 S 9 10 1019.6 - 0.0 - - 10 - - - -
22/05:30am 12.5 SSE 8 9 1019.5 - 0.0 - - 10 - - - -
22/05:00am 11.8 SE 5 6 1019.5 - 0.0 - - 10 - - - -
22/04:30am 12.1 SSE 7 9 1019.3 - 0.0 - - 10 - - - -
22/04:00am 13.7 S 7 8 1019.2 - 0.0 - - 10 - - - -
22/03:30am 14.4 S 7 7 1019.3 - 0.0 - - 10 - - - -
22/03:00am 13.2 SSE 7 7 1019.1 - 0.0 - - 10 - - - -

Other Formats:

Comma delimited format used in spreadsheet applications
http://www.bom.gov.au/fwo/IDW60701/IDW60701.94300.axf

JavaScript Object Notation format (JSON) in row-major order
http://www.bom.gov.au/fwo/IDW60701/IDW60701.94300.json